createdAt,value
2023-03-26T00:00:32.408Z,97.30
2023-03-26T00:01:32.434Z,96.89
2023-03-26T00:02:32.466Z,97.09
2023-03-26T00:03:32.364Z,97.30
2023-03-26T00:04:32.360Z,97.40
2023-03-26T00:05:32.362Z,97.40
2023-03-26T00:06:32.337Z,97.30
2023-03-26T00:07:32.310Z,97.40
2023-03-26T00:08:32.304Z,97.40
2023-03-26T00:09:32.284Z,97.50
2023-03-26T00:10:32.279Z,97.50
2023-03-26T00:11:32.266Z,97.30
2023-03-26T00:12:32.250Z,97.19
2023-03-26T00:13:32.247Z,97.50
2023-03-26T00:14:32.217Z,97.81
2023-03-26T00:15:32.199Z,97.91
2023-03-26T00:16:32.267Z,98.33
2023-03-26T00:17:32.185Z,98.33
2023-03-26T00:18:32.169Z,98.53
2023-03-26T00:19:32.146Z,98.43
2023-03-26T00:20:32.135Z,98.43
2023-03-26T00:21:32.158Z,98.33
2023-03-26T00:22:32.120Z,98.43
2023-03-26T00:23:32.109Z,98.53
2023-03-26T00:24:32.092Z,98.53
2023-03-26T00:25:32.070Z,98.43
2023-03-26T00:26:32.086Z,98.43
2023-03-26T00:27:32.041Z,98.33
2023-03-26T00:28:32.032Z,98.22
2023-03-26T00:29:32.015Z,97.91
2023-03-26T00:30:32.015Z,97.81
2023-03-26T00:31:32.022Z,97.81
2023-03-26T00:32:32.008Z,97.71
2023-03-26T00:33:31.971Z,97.61
2023-03-26T00:34:31.958Z,97.61
2023-03-26T00:35:31.963Z,97.30
2023-03-26T00:36:31.943Z,97.15
2023-03-26T00:37:31.918Z,97.15
2023-03-26T00:38:31.906Z,96.84
2023-03-26T00:39:31.885Z,96.94
2023-03-26T00:40:31.916Z,96.73
2023-03-26T00:41:31.873Z,96.64
2023-03-26T00:42:31.853Z,96.64
2023-03-26T00:43:31.845Z,96.53
2023-03-26T00:44:31.825Z,96.12
2023-03-26T00:45:31.812Z,96.22
2023-03-26T00:46:31.846Z,96.43
2023-03-26T00:47:31.822Z,96.33
2023-03-26T00:48:44.672Z,96.22
2023-03-26T00:49:32.767Z,96.02
2023-03-26T00:50:31.745Z,95.92
2023-03-26T00:51:31.750Z,96.22
2023-03-26T00:52:31.770Z,96.22
2023-03-26T00:53:31.700Z,96.43
2023-03-26T00:54:31.711Z,96.43
2023-03-26T00:55:31.682Z,96.64
2023-03-26T00:56:31.748Z,96.64
2023-03-26T00:57:35.869Z,96.84
2023-03-26T00:58:31.650Z,96.84
2023-03-26T00:59:31.626Z,96.84
2023-03-26T01:00:31.613Z,96.53
2023-03-26T01:01:31.691Z,96.84
2023-03-26T01:02:31.665Z,96.73
2023-03-26T01:03:31.702Z,96.94
2023-03-26T01:04:32.097Z,96.94
2023-03-26T01:05:31.543Z,97.05
2023-03-26T01:06:31.546Z,97.05
2023-03-26T01:07:31.514Z,96.94
2023-03-26T01:08:31.512Z,97.25
2023-03-26T01:09:31.490Z,97.36
2023-03-26T01:10:31.484Z,97.56
2023-03-26T01:11:31.473Z,97.77
2023-03-26T01:12:31.452Z,97.87
2023-03-26T01:13:31.438Z,98.18
2023-03-26T01:14:31.442Z,98.28
2023-03-26T01:15:31.467Z,98.49
2023-03-26T01:16:31.411Z,98.69
2023-03-26T01:17:31.417Z,98.90
2023-03-26T01:18:31.370Z,99.10
2023-03-26T01:19:31.352Z,99.21
2023-03-26T01:20:31.345Z,99.25
2023-03-26T01:21:31.363Z,99.25
2023-03-26T01:22:31.327Z,99.25
2023-03-26T01:23:31.304Z,99.25
2023-03-26T01:24:31.292Z,99.35
2023-03-26T01:25:31.278Z,99.35
2023-03-26T01:26:31.300Z,99.56
2023-03-26T01:27:31.245Z,99.77
2023-03-26T01:28:31.240Z,99.99
2023-03-26T01:29:31.222Z,99.99
2023-03-26T01:30:31.210Z,99.99
2023-03-26T01:31:31.207Z,99.99
2023-03-26T01:32:31.260Z,99.99
2023-03-26T01:33:31.229Z,99.99
2023-03-26T01:34:31.210Z,99.99
2023-03-26T01:35:31.159Z,99.99
2023-03-26T01:36:31.149Z,99.99
2023-03-26T01:37:31.117Z,99.99
2023-03-26T01:38:31.118Z,99.99
2023-03-26T01:39:31.097Z,99.99
2023-03-26T01:40:31.118Z,99.99
2023-03-26T01:41:31.078Z,99.99
2023-03-26T01:42:31.064Z,99.99
2023-03-26T01:43:31.041Z,99.99
2023-03-26T01:44:31.034Z,99.99
2023-03-26T01:45:31.018Z,99.99
2023-03-26T01:46:31.051Z,99.99
2023-03-26T01:47:31.009Z,99.99
2023-03-26T01:48:30.986Z,99.99
2023-03-26T01:49:30.958Z,99.99
2023-03-26T01:50:31.020Z,99.99
2023-03-26T01:51:30.978Z,99.99
2023-03-26T01:52:30.927Z,99.99
2023-03-26T01:53:30.916Z,99.99
2023-03-26T01:54:30.896Z,99.99
2023-03-26T01:55:30.884Z,99.99
2023-03-26T01:56:30.915Z,99.99
2023-03-26T01:57:30.858Z,99.99
2023-03-26T01:58:30.837Z,99.99
2023-03-26T01:59:30.829Z,99.99
2023-03-26T02:00:30.828Z,99.99
2023-03-26T02:01:30.826Z,99.99
2023-03-26T02:02:30.945Z,99.99
2023-03-26T02:03:30.844Z,99.99
2023-03-26T02:04:30.758Z,99.99
2023-03-26T02:05:30.826Z,99.99
2023-03-26T02:06:30.791Z,99.99
2023-03-26T02:07:30.738Z,99.99
2023-03-26T02:08:30.724Z,99.99
2023-03-26T02:09:30.701Z,99.99
2023-03-26T02:10:30.682Z,99.99
2023-03-26T02:11:35.407Z,99.99
2023-03-26T02:12:31.667Z,99.99
2023-03-26T02:13:30.651Z,99.99
2023-03-26T02:14:30.625Z,99.99
2023-03-26T02:15:30.626Z,99.99
2023-03-26T02:16:30.639Z,99.99
2023-03-26T02:17:30.629Z,99.99
2023-03-26T02:18:30.572Z,99.99
2023-03-26T02:19:30.574Z,99.99
2023-03-26T02:20:30.546Z,99.99
2023-03-26T02:21:30.538Z,99.99
2023-03-26T02:22:30.530Z,99.99
2023-03-26T02:23:30.510Z,99.99
2023-03-26T02:24:30.493Z,99.99
2023-03-26T02:25:30.485Z,99.99
2023-03-26T02:26:30.488Z,99.99
2023-03-26T02:27:30.475Z,99.99
2023-03-26T02:28:30.438Z,99.99
2023-03-26T02:29:30.445Z,99.99
2023-03-26T02:30:30.416Z,99.99
2023-03-26T02:31:30.490Z,99.99
2023-03-26T02:32:30.421Z,99.65
2023-03-26T02:33:30.377Z,99.04
2023-03-26T02:34:30.360Z,99.34
2023-03-26T02:35:30.483Z,99.34
2023-03-26T02:36:30.862Z,98.52
2023-03-26T02:37:30.348Z,98.21
2023-03-26T02:38:30.327Z,98.32
2023-03-26T02:39:30.302Z,98.21
2023-03-26T02:40:30.294Z,98.21
2023-03-26T02:41:30.275Z,97.60
2023-03-26T02:42:30.265Z,97.69
2023-03-26T02:43:30.259Z,97.60
2023-03-26T02:44:30.233Z,97.49
2023-03-26T02:45:30.240Z,97.49
2023-03-26T02:46:30.326Z,97.49
2023-03-26T02:47:30.231Z,97.49
2023-03-26T02:48:30.172Z,97.80
2023-03-26T02:49:30.173Z,97.95
2023-03-26T02:50:30.150Z,97.95
2023-03-26T02:51:30.144Z,98.05
2023-03-26T02:52:30.139Z,98.25
2023-03-26T02:53:30.116Z,98.15
2023-03-26T02:54:30.116Z,98.05
2023-03-26T02:55:30.099Z,97.85
2023-03-26T02:56:30.150Z,98.15
2023-03-26T02:57:30.073Z,98.25
2023-03-26T02:58:30.097Z,98.46
2023-03-26T02:59:30.038Z,98.57
2023-03-26T03:00:30.029Z,98.57
2023-03-26T03:01:30.043Z,98.67
2023-03-26T03:02:30.067Z,98.67
2023-03-26T03:03:30.127Z,98.46
2023-03-26T03:04:29.977Z,98.32
2023-03-26T03:05:29.955Z,98.32
2023-03-26T03:06:29.944Z,98.11
2023-03-26T03:07:29.974Z,98.11
2023-03-26T03:08:29.947Z,98.11
2023-03-26T03:09:29.899Z,98.00
2023-03-26T03:10:29.885Z,97.90
2023-03-26T03:11:29.881Z,97.60
2023-03-26T03:12:29.857Z,97.60
2023-03-26T03:13:29.858Z,97.08
2023-03-26T03:14:29.830Z,97.18
2023-03-26T03:15:29.823Z,97.08
2023-03-26T03:16:29.826Z,96.88
2023-03-26T03:17:29.830Z,96.77
2023-03-26T03:18:29.789Z,96.56
2023-03-26T03:19:29.770Z,96.41
2023-03-26T03:20:29.755Z,96.61
2023-03-26T03:21:29.759Z,96.41
2023-03-26T03:22:29.725Z,96.50
2023-03-26T03:23:29.731Z,96.41
2023-03-26T03:24:29.699Z,96.41
2023-03-26T03:25:29.689Z,96.41
2023-03-26T03:26:29.712Z,96.50
2023-03-26T03:27:29.670Z,96.71
2023-03-26T03:28:29.681Z,96.61
2023-03-26T03:29:29.658Z,96.61
2023-03-26T03:30:29.623Z,96.41
2023-03-26T03:31:29.652Z,96.61
2023-03-26T03:32:29.639Z,96.50
2023-03-26T03:33:29.609Z,96.61
2023-03-26T03:34:29.575Z,96.41
2023-03-26T03:35:29.602Z,96.61
2023-03-26T03:36:29.541Z,96.66
2023-03-26T03:37:29.532Z,96.75
2023-03-26T03:38:29.531Z,96.86
2023-03-26T03:39:29.509Z,97.06
2023-03-26T03:40:29.527Z,96.75
2023-03-26T03:41:29.479Z,96.55
2023-03-26T03:42:29.467Z,96.24
2023-03-26T03:43:29.467Z,96.24
2023-03-26T03:44:29.442Z,96.45
2023-03-26T03:45:29.434Z,96.45
2023-03-26T03:46:29.432Z,96.34
2023-03-26T03:47:29.440Z,96.45
2023-03-26T03:48:29.400Z,96.14
2023-03-26T03:49:29.383Z,96.24
2023-03-26T03:50:29.358Z,96.24
2023-03-26T03:51:29.356Z,96.34
2023-03-26T03:52:29.338Z,96.39
2023-03-26T03:53:29.347Z,96.45
2023-03-26T03:54:29.319Z,96.39
2023-03-26T03:55:29.301Z,96.39
2023-03-26T03:56:29.288Z,96.49
2023-03-26T03:57:29.281Z,96.49
2023-03-26T03:58:29.266Z,96.59
2023-03-26T03:59:29.248Z,96.80
2023-03-26T04:00:29.238Z,96.80
2023-03-26T04:01:29.226Z,96.80
2023-03-26T04:02:29.267Z,96.80
2023-03-26T04:03:33.388Z,96.80
2023-03-26T04:04:30.207Z,96.70
2023-03-26T04:05:29.182Z,96.84
2023-03-26T04:06:29.151Z,96.80
2023-03-26T04:07:29.143Z,96.70
2023-03-26T04:08:29.144Z,96.95
2023-03-26T04:09:29.118Z,97.05
2023-03-26T04:10:29.097Z,97.16
2023-03-26T04:11:29.092Z,97.36
2023-03-26T04:12:29.076Z,97.36
2023-03-26T04:13:29.077Z,97.36
2023-03-26T04:14:29.047Z,97.56
2023-03-26T04:15:29.044Z,97.56
2023-03-26T04:16:29.093Z,97.11
2023-03-26T04:17:29.031Z,97.01
2023-03-26T04:18:29.006Z,96.80
2023-03-26T04:19:28.986Z,96.59
2023-03-26T04:20:28.972Z,96.59
2023-03-26T04:21:28.963Z,96.49
2023-03-26T04:22:28.941Z,96.18
2023-03-26T04:23:28.966Z,96.08
2023-03-26T04:24:28.923Z,95.87
2023-03-26T04:25:28.921Z,95.36
2023-03-26T04:26:28.888Z,94.43
2023-03-26T04:27:28.881Z,94.18
2023-03-26T04:28:28.880Z,94.59
2023-03-26T04:29:28.854Z,94.80
2023-03-26T04:30:28.868Z,95.00
2023-03-26T04:31:28.905Z,95.21
2023-03-26T04:32:28.853Z,95.62
2023-03-26T04:33:28.822Z,95.83
2023-03-26T04:34:28.789Z,95.93
2023-03-26T04:35:28.837Z,96.03
2023-03-26T04:36:28.758Z,96.03
2023-03-26T04:37:28.754Z,96.24
2023-03-26T04:38:28.749Z,96.14
2023-03-26T04:39:28.733Z,96.24
2023-03-26T04:40:28.709Z,96.03
2023-03-26T04:41:28.703Z,96.14
2023-03-26T04:42:28.734Z,96.24
2023-03-26T04:43:28.691Z,96.14
2023-03-26T04:44:28.658Z,95.21
2023-03-26T04:45:28.652Z,95.42
2023-03-26T04:46:28.668Z,95.42
2023-03-26T04:47:28.670Z,95.73
2023-03-26T04:48:28.614Z,95.93
2023-03-26T04:49:28.594Z,96.14
2023-03-26T04:50:28.579Z,96.24
2023-03-26T04:51:28.568Z,96.45
2023-03-26T04:52:28.554Z,96.45
2023-03-26T04:53:28.559Z,96.66
2023-03-26T04:54:28.525Z,96.75
2023-03-26T04:55:28.522Z,96.75
2023-03-26T04:56:28.513Z,96.75
2023-03-26T04:57:28.501Z,96.86
2023-03-26T04:58:28.487Z,96.86
2023-03-26T04:59:28.465Z,96.96
2023-03-26T05:00:28.450Z,96.86
2023-03-26T05:01:28.517Z,96.96
2023-03-26T05:02:28.459Z,97.06
2023-03-26T05:03:28.429Z,96.86
2023-03-26T05:04:28.454Z,96.86
2023-03-26T05:05:28.499Z,96.86
2023-03-26T05:06:28.384Z,96.86
2023-03-26T05:07:28.362Z,96.86
2023-03-26T05:08:28.370Z,96.86
2023-03-26T05:09:28.331Z,96.86
2023-03-26T05:10:28.320Z,96.86
2023-03-26T05:11:28.320Z,96.86
2023-03-26T05:12:28.291Z,96.66
2023-03-26T05:13:28.287Z,96.66
2023-03-26T05:14:28.300Z,96.55
2023-03-26T05:15:28.254Z,96.34
2023-03-26T05:16:28.297Z,96.55
2023-03-26T05:17:28.239Z,96.55
2023-03-26T05:18:28.208Z,96.34
2023-03-26T05:19:28.217Z,96.34
2023-03-26T05:20:28.183Z,96.34
2023-03-26T05:21:28.174Z,96.49
2023-03-26T05:22:28.157Z,96.39
2023-03-26T05:23:28.160Z,96.49
2023-03-26T05:24:28.145Z,96.39
2023-03-26T05:25:28.127Z,96.49
2023-03-26T05:26:28.109Z,96.49
2023-03-26T05:27:28.099Z,96.49
2023-03-26T05:28:28.087Z,96.39
2023-03-26T05:29:28.088Z,96.28
2023-03-26T05:30:28.051Z,96.28
2023-03-26T05:31:28.094Z,96.28
2023-03-26T05:32:28.043Z,96.28
2023-03-26T05:33:28.161Z,96.08
2023-03-26T05:34:28.010Z,95.98
2023-03-26T05:35:28.020Z,95.73
2023-03-26T05:36:27.975Z,95.87
2023-03-26T05:37:27.964Z,95.98
2023-03-26T05:38:27.950Z,96.08
2023-03-26T05:39:27.952Z,96.18
2023-03-26T05:40:27.920Z,96.18
2023-03-26T05:41:27.915Z,96.08
2023-03-26T05:42:27.951Z,96.18
2023-03-26T05:43:27.893Z,95.87
2023-03-26T05:44:27.886Z,95.62
2023-03-26T05:45:27.872Z,95.42
2023-03-26T05:46:27.875Z,95.62
2023-03-26T05:47:27.870Z,95.42
2023-03-26T05:48:27.829Z,95.42
2023-03-26T05:49:27.827Z,95.21
2023-03-26T05:50:27.789Z,95.21
2023-03-26T05:51:27.782Z,95.21
2023-03-26T05:52:27.768Z,95.00
2023-03-26T05:53:27.766Z,94.38
2023-03-26T05:54:27.750Z,94.08
2023-03-26T05:55:27.740Z,94.28
2023-03-26T05:56:27.717Z,93.77
2023-03-26T05:57:27.702Z,93.46
2023-03-26T05:58:27.684Z,93.31
2023-03-26T05:59:27.693Z,93.11
2023-03-26T06:00:27.661Z,92.34
2023-03-26T06:01:27.648Z,91.42
2023-03-26T06:02:27.681Z,91.27
2023-03-26T06:03:27.716Z,91.06
2023-03-26T06:04:27.718Z,90.09
2023-03-26T06:05:27.592Z,89.89
2023-03-26T06:06:27.573Z,89.34
2023-03-26T06:07:27.570Z,89.64
2023-03-26T06:08:27.572Z,90.67
2023-03-26T06:09:27.551Z,90.41
2023-03-26T06:10:27.590Z,90.09
2023-03-26T06:11:27.511Z,91.02
2023-03-26T06:12:27.509Z,90.81
2023-03-26T06:13:27.486Z,91.02
2023-03-26T06:14:27.491Z,91.47
2023-03-26T06:15:27.460Z,91.06
2023-03-26T06:16:28.387Z,91.13
2023-03-26T06:17:27.543Z,91.64
2023-03-26T06:18:27.457Z,91.74
2023-03-26T06:19:27.422Z,91.02
2023-03-26T06:20:27.434Z,91.64
2023-03-26T06:21:27.392Z,91.23
2023-03-26T06:22:27.395Z,91.33
2023-03-26T06:23:27.380Z,90.72
2023-03-26T06:24:27.370Z,90.57
2023-03-26T06:25:27.328Z,90.36
2023-03-26T06:26:27.317Z,89.95
2023-03-26T06:27:27.297Z,89.95
2023-03-26T06:28:27.294Z,89.64
2023-03-26T06:29:27.314Z,89.44
2023-03-26T06:30:27.266Z,89.64
2023-03-26T06:31:27.384Z,89.54
2023-03-26T06:32:27.261Z,89.95
2023-03-26T06:33:27.227Z,90.26
2023-03-26T06:34:27.228Z,90.32
2023-03-26T06:35:27.200Z,89.64
2023-03-26T06:36:27.191Z,89.64
2023-03-26T06:37:27.186Z,90.47
2023-03-26T06:38:27.164Z,90.26
2023-03-26T06:39:27.161Z,89.95
2023-03-26T06:40:27.139Z,89.85
2023-03-26T06:41:27.125Z,89.75
2023-03-26T06:43:06.841Z,89.75
2023-03-26T06:43:28.100Z,90.22
2023-03-26T06:44:27.099Z,89.91
2023-03-26T06:45:27.072Z,89.60
2023-03-26T06:46:27.281Z,90.12
2023-03-26T06:47:27.066Z,90.53
2023-03-26T06:48:27.030Z,89.70
2023-03-26T06:49:27.033Z,89.40
2023-03-26T06:50:27.023Z,89.60
2023-03-26T06:51:26.993Z,90.08
2023-03-26T06:52:26.979Z,89.15
2023-03-26T06:53:26.961Z,90.18
2023-03-26T06:54:26.975Z,89.46
2023-03-26T06:55:26.996Z,89.56
2023-03-26T06:56:26.961Z,89.76
2023-03-26T06:57:26.920Z,89.87
2023-03-26T06:58:26.923Z,89.87
2023-03-26T06:59:26.902Z,89.46
2023-03-26T07:00:26.888Z,89.66
2023-03-26T07:01:26.905Z,90.08
2023-03-26T07:02:26.865Z,89.76
2023-03-26T07:03:26.858Z,89.66
2023-03-26T07:04:26.888Z,89.46
2023-03-26T07:05:26.814Z,89.72
2023-03-26T07:06:26.830Z,89.31
2023-03-26T07:07:26.788Z,88.70
2023-03-26T07:08:26.774Z,89.01
2023-03-26T07:09:26.775Z,88.08
2023-03-26T07:10:26.757Z,87.88
2023-03-26T07:11:26.746Z,88.29
2023-03-26T07:12:26.731Z,88.70
2023-03-26T07:13:26.711Z,88.70
2023-03-26T07:14:26.735Z,88.70
2023-03-26T07:15:26.686Z,87.98
2023-03-26T07:16:26.713Z,87.67
2023-03-26T07:17:26.670Z,87.46
2023-03-26T07:18:26.642Z,87.77
2023-03-26T07:19:26.641Z,88.18
2023-03-26T07:20:26.618Z,88.70
2023-03-26T07:21:26.600Z,88.02
2023-03-26T07:22:26.599Z,87.61
2023-03-26T07:23:26.580Z,88.33
2023-03-26T07:24:26.580Z,87.92
2023-03-26T07:25:26.550Z,88.02
2023-03-26T07:26:26.541Z,86.79
2023-03-26T07:27:26.524Z,88.02
2023-03-26T07:28:26.760Z,87.82
2023-03-26T07:29:26.516Z,88.18
2023-03-26T07:30:26.508Z,88.39
2023-03-26T07:31:26.514Z,87.77
2023-03-26T07:32:26.521Z,86.95
2023-03-26T07:33:26.451Z,87.57
2023-03-26T07:34:26.454Z,87.67
2023-03-26T07:35:26.450Z,87.57
2023-03-26T07:36:26.425Z,87.32
2023-03-26T07:37:26.428Z,87.43
2023-03-26T07:38:26.387Z,86.81
2023-03-26T07:39:28.028Z,85.99
2023-03-26T07:40:26.359Z,86.66
2023-03-26T07:41:26.346Z,85.27
2023-03-26T07:42:26.335Z,85.78
2023-03-26T07:43:26.315Z,87.02
2023-03-26T07:44:26.325Z,86.71
2023-03-26T07:45:26.287Z,86.60
2023-03-26T07:46:26.280Z,87.08
2023-03-26T07:47:26.366Z,86.98
2023-03-26T07:48:26.255Z,87.28
2023-03-26T07:49:26.252Z,85.95
2023-03-26T07:50:26.228Z,85.64
2023-03-26T07:51:26.251Z,86.05
2023-03-26T07:52:26.202Z,85.85
2023-03-26T07:53:26.182Z,85.95
2023-03-26T07:54:26.185Z,86.15
2023-03-26T07:55:26.164Z,86.05
2023-03-26T07:56:26.173Z,85.23
2023-03-26T07:57:26.156Z,85.38
2023-03-26T07:58:26.128Z,85.47
2023-03-26T07:59:26.148Z,86.40
2023-03-26T08:00:26.092Z,85.99
2023-03-26T08:01:26.073Z,85.99
2023-03-26T08:02:26.169Z,85.54
2023-03-26T08:03:26.204Z,85.23
2023-03-26T08:04:26.467Z,85.44
2023-03-26T08:05:26.038Z,86.01
2023-03-26T08:06:26.017Z,85.19
2023-03-26T08:07:25.997Z,84.27
2023-03-26T08:08:25.988Z,85.19
2023-03-26T08:09:25.975Z,84.88
2023-03-26T08:10:25.974Z,84.52
2023-03-26T08:11:25.940Z,84.20
2023-03-26T08:12:25.939Z,84.92
2023-03-26T08:13:25.920Z,85.03
2023-03-26T08:14:25.909Z,85.09
2023-03-26T08:15:26.003Z,84.27
2023-03-26T08:16:25.878Z,84.78
2023-03-26T08:17:25.887Z,84.68
2023-03-26T08:18:25.850Z,84.06
2023-03-26T08:19:25.831Z,84.10
2023-03-26T08:20:25.837Z,84.72
2023-03-26T08:21:25.803Z,84.82
2023-03-26T08:22:25.848Z,84.52
2023-03-26T08:23:25.776Z,85.39
2023-03-26T08:24:25.779Z,84.37
2023-03-26T08:25:25.777Z,85.30
2023-03-26T08:26:25.743Z,85.39
2023-03-26T08:27:25.718Z,85.09
2023-03-26T08:28:25.718Z,84.58
2023-03-26T08:29:25.698Z,84.99
2023-03-26T08:30:25.700Z,84.61
2023-03-26T08:31:25.693Z,84.37
2023-03-26T08:32:25.662Z,85.39
2023-03-26T08:33:25.647Z,84.06
2023-03-26T08:34:25.635Z,84.31
2023-03-26T08:35:25.663Z,83.96
2023-03-26T08:36:25.603Z,84.27
2023-03-26T08:37:25.596Z,84.68
2023-03-26T08:38:25.580Z,83.55
2023-03-26T08:39:25.566Z,83.96
2023-03-26T08:40:25.570Z,85.46
2023-03-26T08:41:25.550Z,84.23
2023-03-26T08:42:25.523Z,84.50
2023-03-26T08:43:25.503Z,84.05
2023-03-26T08:44:25.498Z,81.70
2023-03-26T08:45:25.493Z,81.52
2023-03-26T08:46:25.522Z,81.70
2023-03-26T08:47:25.545Z,81.38
2023-03-26T08:48:25.474Z,81.79
2023-03-26T08:49:26.673Z,80.94
2023-03-26T08:50:25.457Z,81.04
2023-03-26T08:51:25.448Z,80.74
2023-03-26T08:52:25.448Z,80.33
2023-03-26T08:53:25.543Z,80.22
2023-03-26T08:54:25.419Z,80.26
2023-03-26T08:55:25.379Z,81.38
2023-03-26T08:56:25.355Z,81.49
2023-03-26T08:57:25.337Z,81.79
2023-03-26T08:58:25.313Z,80.30
2023-03-26T08:59:25.315Z,80.60
2023-03-26T09:00:25.310Z,81.73
2023-03-26T09:01:25.280Z,82.96
2023-03-26T09:02:25.289Z,82.65
2023-03-26T09:03:25.317Z,81.52
2023-03-26T09:04:25.244Z,81.73
2023-03-26T09:05:25.234Z,82.10
2023-03-26T09:06:25.456Z,81.49
2023-03-26T09:07:25.184Z,81.15
2023-03-26T09:08:25.209Z,81.24
2023-03-26T09:09:26.198Z,81.31
2023-03-26T09:10:25.166Z,79.20
2023-03-26T09:11:25.132Z,80.63
2023-03-26T09:12:25.571Z,80.02
2023-03-26T09:13:25.137Z,81.15
2023-03-26T09:14:25.117Z,80.63
2023-03-26T09:15:25.109Z,80.26
2023-03-26T09:16:25.124Z,80.88
2023-03-26T09:17:25.085Z,81.45
2023-03-26T09:18:25.042Z,80.63
2023-03-26T09:19:25.055Z,81.21
2023-03-26T09:20:25.048Z,80.80
2023-03-26T09:21:25.014Z,80.90
2023-03-26T09:22:24.985Z,79.37
2023-03-26T09:23:24.972Z,80.08
2023-03-26T09:24:24.963Z,80.29
2023-03-26T09:25:24.958Z,80.49
2023-03-26T09:26:24.956Z,79.06
2023-03-26T09:27:24.920Z,81.01
2023-03-26T09:28:24.907Z,79.37
2023-03-26T09:29:24.897Z,79.74
2023-03-26T09:30:24.894Z,79.60
2023-03-26T09:31:24.923Z,79.50
2023-03-26T09:32:24.871Z,78.99
2023-03-26T09:33:24.847Z,79.09
2023-03-26T09:34:24.833Z,77.70
2023-03-26T09:35:24.871Z,79.33
2023-03-26T09:36:24.824Z,78.68
2023-03-26T09:37:24.846Z,78.68
2023-03-26T09:38:24.813Z,78.85
2023-03-26T09:39:24.759Z,78.64
2023-03-26T09:40:24.768Z,78.81
2023-03-26T09:41:24.735Z,76.87
2023-03-26T09:42:24.720Z,77.79
2023-03-26T09:43:24.709Z,77.22
2023-03-26T09:44:24.698Z,76.81
2023-03-26T09:45:24.720Z,77.01
2023-03-26T09:46:24.669Z,78.23
2023-03-26T09:47:24.668Z,77.89
2023-03-26T09:48:24.645Z,77.18
2023-03-26T09:49:24.656Z,77.96
2023-03-26T09:50:24.636Z,76.02
2023-03-26T09:51:26.178Z,77.04
2023-03-26T09:52:24.600Z,75.75
2023-03-26T09:53:24.574Z,76.12
2023-03-26T09:54:24.572Z,77.31
2023-03-26T09:55:24.565Z,75.64
2023-03-26T09:56:24.537Z,75.68
2023-03-26T09:57:24.534Z,75.16
2023-03-26T09:58:24.525Z,76.50
2023-03-26T09:59:24.497Z,75.61
2023-03-26T10:00:24.505Z,77.45
2023-03-26T10:01:24.493Z,78.02
2023-03-26T10:02:45.606Z,75.68
2023-03-26T10:03:26.885Z,77.31
2023-03-26T10:04:24.444Z,75.13
2023-03-26T10:05:24.424Z,76.18
2023-03-26T10:06:24.407Z,72.82
2023-03-26T10:07:24.381Z,74.93
2023-03-26T10:08:24.375Z,73.64
2023-03-26T10:09:24.358Z,75.88
2023-03-26T10:10:24.378Z,74.96
2023-03-26T10:11:24.383Z,75.27
2023-03-26T10:12:24.333Z,76.46
2023-03-26T10:13:24.302Z,76.56
2023-03-26T10:14:24.295Z,76.73
2023-03-26T10:15:25.216Z,74.58
2023-03-26T10:16:24.348Z,73.54
2023-03-26T10:17:24.289Z,73.13
2023-03-26T10:18:27.445Z,74.01
2023-03-26T10:19:25.240Z,72.86
2023-03-26T10:20:24.228Z,72.41
2023-03-26T10:21:26.142Z,72.41
2023-03-26T10:22:24.185Z,73.84
2023-03-26T10:23:24.178Z,74.55
2023-03-26T10:24:24.169Z,74.21
2023-03-26T10:25:24.170Z,73.91
2023-03-26T10:26:24.158Z,72.31
2023-03-26T10:27:24.803Z,73.81
2023-03-26T10:28:24.117Z,74.87
2023-03-26T10:29:24.099Z,76.09
2023-03-26T10:30:24.106Z,75.99
2023-03-26T10:31:24.139Z,76.09
2023-03-26T10:32:24.056Z,74.63
2023-03-26T10:33:25.153Z,74.32
2023-03-26T10:34:28.367Z,75.92
2023-03-26T10:35:25.052Z,74.49
2023-03-26T10:36:23.991Z,72.99
2023-03-26T10:37:23.985Z,74.29
2023-03-26T10:38:23.974Z,74.69
2023-03-26T10:39:37.289Z,73.47
2023-03-26T10:40:24.964Z,73.30
2023-03-26T10:41:23.942Z,74.76
2023-03-26T10:42:23.931Z,74.35
2023-03-26T10:43:23.905Z,74.66
2023-03-26T10:44:23.899Z,74.87
2023-03-26T10:45:23.897Z,78.50
2023-03-26T10:46:23.893Z,75.13
2023-03-26T10:47:23.899Z,74.83
2023-03-26T10:48:23.834Z,74.83
2023-03-26T10:49:23.838Z,74.22
2023-03-26T10:50:24.028Z,74.66
2023-03-26T10:51:23.797Z,75.99
2023-03-26T10:52:23.779Z,75.13
2023-03-26T10:53:23.769Z,74.76
2023-03-26T10:54:23.758Z,75.48
2023-03-26T10:55:25.558Z,75.68
2023-03-26T10:56:23.733Z,75.17
2023-03-26T10:57:23.724Z,75.07
2023-03-26T10:58:23.712Z,76.70
2023-03-26T10:59:23.691Z,77.62
2023-03-26T11:00:23.704Z,78.03
2023-03-26T11:01:23.699Z,78.75
2023-03-26T11:02:29.129Z,77.62
2023-03-26T11:03:24.646Z,77.93
2023-03-26T11:04:23.629Z,78.75
2023-03-26T11:05:23.689Z,79.09
2023-03-26T11:06:23.603Z,78.99
2023-03-26T11:07:23.589Z,79.19
2023-03-26T11:08:31.579Z,79.39
2023-03-26T11:09:24.567Z,79.29
2023-03-26T11:10:23.557Z,78.23
2023-03-26T11:11:23.541Z,77.86
2023-03-26T11:12:26.371Z,77.76
2023-03-26T11:13:23.532Z,78.88
2023-03-26T11:14:33.756Z,78.78
2023-03-26T11:15:24.503Z,79.19
2023-03-26T11:16:23.494Z,79.05
2023-03-26T11:17:40.134Z,77.66
2023-03-26T11:18:24.514Z,77.66
2023-03-26T11:19:23.435Z,78.27
2023-03-26T11:20:23.445Z,78.88
2023-03-26T11:21:23.413Z,78.95
2023-03-26T11:22:23.397Z,78.95
2023-03-26T11:23:23.382Z,78.03
2023-03-26T11:24:23.365Z,78.17
2023-03-26T11:25:23.367Z,78.99
2023-03-26T11:26:23.373Z,79.13
2023-03-26T11:27:25.195Z,79.39
2023-03-26T11:28:23.310Z,78.61
2023-03-26T11:29:32.313Z,79.70
2023-03-26T11:30:24.308Z,79.19
2023-03-26T11:31:23.318Z,79.25
2023-03-26T11:32:23.274Z,80.14
2023-03-26T11:33:23.258Z,78.88
2023-03-26T11:34:23.240Z,76.43
2023-03-26T11:35:40.773Z,77.25
2023-03-26T11:36:24.285Z,77.00
2023-03-26T11:37:23.203Z,76.12
2023-03-26T11:38:23.181Z,76.53
2023-03-26T11:39:23.179Z,75.92
2023-03-26T11:40:23.163Z,75.27
2023-03-26T11:41:23.469Z,76.02
2023-03-26T11:42:23.132Z,76.12
2023-03-26T11:43:23.121Z,76.66
2023-03-26T11:44:23.100Z,76.42
2023-03-26T11:45:23.094Z,73.10
2023-03-26T11:46:23.107Z,74.62
2023-03-26T11:47:23.104Z,74.83
2023-03-26T11:48:23.051Z,73.06
2023-03-26T11:49:23.051Z,73.88
2023-03-26T11:50:23.025Z,73.26
2023-03-26T11:51:23.026Z,73.43
2023-03-26T11:52:23.000Z,73.94
2023-03-26T11:53:23.002Z,73.50
2023-03-26T11:54:22.973Z,72.89
2023-03-26T11:55:22.966Z,72.72
2023-03-26T11:56:22.952Z,71.70
2023-03-26T11:57:23.025Z,72.14
2023-03-26T11:58:22.912Z,72.04
2023-03-26T11:59:22.909Z,73.74
2023-03-26T12:00:22.896Z,73.91
2023-03-26T12:01:22.903Z,75.27
2023-03-26T12:02:22.941Z,74.01
2023-03-26T12:03:22.880Z,72.48
2023-03-26T12:04:22.900Z,74.79
2023-03-26T12:05:22.826Z,72.55
2023-03-26T12:06:22.819Z,71.26
2023-03-26T12:07:22.794Z,71.73
2023-03-26T12:08:22.776Z,74.55
2023-03-26T12:09:22.768Z,72.04
2023-03-26T12:10:22.757Z,72.45
2023-03-26T12:11:22.757Z,72.21
2023-03-26T12:12:22.729Z,73.27
2023-03-26T12:13:22.714Z,75.20
2023-03-26T12:14:22.707Z,74.55
2023-03-26T12:15:22.697Z,75.98
2023-03-26T12:16:22.721Z,73.64
2023-03-26T12:17:22.669Z,71.91
2023-03-26T12:18:23.641Z,73.06
2023-03-26T12:19:22.644Z,73.16
2023-03-26T12:20:22.623Z,74.59
2023-03-26T12:21:22.620Z,77.31
2023-03-26T12:22:22.662Z,75.03
2023-03-26T12:23:22.600Z,73.43
2023-03-26T12:24:22.560Z,74.15
2023-03-26T12:25:22.566Z,74.15
2023-03-26T12:26:22.547Z,74.73
2023-03-26T12:27:22.658Z,73.64
2023-03-26T12:28:22.541Z,72.99
2023-03-26T12:29:22.521Z,73.97
2023-03-26T12:30:22.511Z,73.77
2023-03-26T12:31:22.510Z,72.55
2023-03-26T12:32:25.492Z,73.06
2023-03-26T12:33:23.489Z,72.34
2023-03-26T12:34:22.439Z,71.73
2023-03-26T12:35:22.425Z,73.67
2023-03-26T12:36:22.414Z,75.57
2023-03-26T12:37:22.440Z,72.21
2023-03-26T12:38:22.392Z,71.80
2023-03-26T12:40:08.704Z,72.21
2023-03-26T12:40:23.454Z,71.43
2023-03-26T12:44:42.879Z,73.64
2023-03-26T12:44:45.205Z,71.67
2023-03-26T12:44:50.407Z,72.99
2023-03-26T12:44:53.577Z,72.89
2023-03-26T12:45:23.283Z,72.92
2023-03-26T12:47:57.771Z,74.32
2023-03-26T12:47:58.862Z,74.76
2023-03-26T12:48:23.279Z,73.16
2023-03-26T12:49:22.343Z,71.43
2023-03-26T12:50:34.905Z,71.53
2023-03-26T12:51:23.223Z,72.65
2023-03-26T12:52:22.194Z,71.94